Time;durP1;ratioP1;P1;durP2;ratioP2;P2;SDS_P1;SDS_P2;PMS_P1;PMS_P2;Temp;Humidity;BMP_temperature;BMP_pressure;BME280_temperature;BME280_humidity;BME280_pressure;Samples;Min_cycle;Max_cycle;Signal;HPM_P1;HPM_P2
2022/09/08 00:00:26;;;;;;;0.70;0.70;;;;;;;;;;5075286;28;20481;-74
2022/09/08 00:02:53;;;;;;;0.80;0.70;;;;;;;;;;5086667;28;20449;-75
2022/09/08 00:05:22;;;;;;;2.90;2.80;;;;;;;;;;5080503;28;20471;-72
2022/09/08 00:07:49;;;;;;;0.70;0.70;;;;;;;;;;5078904;28;20436;-75
2022/09/08 00:10:17;;;;;;;0.70;0.63;;;;;;;;;;5076864;28;20444;-75
2022/09/08 00:12:44;;;;;;;1.10;1.00;;;;;;;;;;5078356;28;20468;-74
2022/09/08 00:15:11;;;;;;;0.70;0.60;;;;;;;;;;5075806;28;20520;-74
2022/09/08 00:17:40;;;;;;;0.70;0.60;;;;;;;;;;5075772;28;20508;-74
2022/09/08 00:20:07;;;;;;;0.77;0.67;;;;;;;;;;5088227;28;20531;-74
2022/09/08 00:22:35;;;;;;;0.80;0.73;;;;;;;;;;5083046;28;20501;-74
2022/09/08 00:25:02;;;;;;;0.80;0.80;;;;;;;;;;5066145;28;20551;-74
2022/09/08 00:27:29;;;;;;;0.73;0.70;;;;;;;;;;5080998;28;20455;-73
2022/09/08 00:29:55;;;;;;;0.70;0.70;;;;;;;;;;5083838;28;21037;-74
2022/09/08 00:32:23;;;;;;;0.80;0.70;;;;;;;;;;5078780;28;20792;-75
2022/09/08 00:34:51;;;;;;;0.73;0.70;;;;;;;;;;5089215;28;20485;-74
2022/09/08 00:37:18;;;;;;;0.70;0.70;;;;;;;;;;5084127;28;20468;-74
2022/09/08 00:39:48;;;;;;;0.90;0.87;;;;;;;;;;5087457;28;20536;-73
2022/09/08 00:42:15;;;;;;;0.70;0.60;;;;;;;;;;5073598;28;20496;-73
2022/09/08 00:44:48;;;;;;;0.70;0.70;;;;;;;;;;5092087;28;20458;-73
2022/09/08 00:47:17;;;;;;;0.80;0.80;;;;;;;;;;5084670;28;20786;-74
2022/09/08 00:49:46;;;;;;;0.70;0.70;;;;;;;;;;5083378;28;20964;-74
2022/09/08 00:52:14;;;;;;;0.70;0.70;;;;;;;;;;5080576;28;20459;-74
2022/09/08 00:54:46;;;;;;;0.80;0.80;;;;;;;;;;5081972;28;20469;-75
2022/09/08 00:57:21;;;;;;;0.77;0.70;;;;;;;;;;5083122;28;20426;-74
2022/09/08 00:59:57;;;;;;;0.70;0.70;;;;;;;;;;5072014;28;20482;-74
2022/09/08 01:02:30;;;;;;;0.70;0.70;;;;;;;;;;5078758;28;20435;-73
2022/09/08 01:05:02;;;;;;;1.40;1.30;;;;;;;;;;5061811;28;20438;-73
2022/09/08 01:13:16;;;;;;;0.80;0.80;;;;;;;;;;5078971;28;20452;-72
2022/09/08 01:15:44;;;;;;;0.70;0.70;;;;;;;;;;5080104;28;20474;-73
2022/09/08 01:18:15;;;;;;;0.70;0.60;;;;;;;;;;5085033;28;20441;-74
2022/09/08 01:20:49;;;;;;;0.70;0.60;;;;;;;;;;5078435;28;20464;-74
2022/09/08 01:23:37;;;;;;;0.70;0.70;;;;;;;;;;5085088;28;20902;-74
2022/09/08 01:26:16;;;;;;;0.80;0.70;;;;;;;;;;5080345;28;20484;-74
2022/09/08 01:28:49;;;;;;;0.80;0.80;;;;;;;;;;5078179;28;20447;-74
2022/09/08 01:31:19;;;;;;;0.70;0.70;;;;;;;;;;5074588;28;20785;-74
2022/09/08 01:33:53;;;;;;;0.70;0.70;;;;;;;;;;5078538;28;20894;-75
2022/09/08 01:36:23;;;;;;;0.70;0.67;;;;;;;;;;5058055;28;20535;-74
2022/09/08 01:38:52;;;;;;;0.70;0.63;;;;;;;;;;5077626;28;20482;-74
2022/09/08 01:41:23;;;;;;;1.00;0.90;;;;;;;;;;5083799;28;20453;-75
2022/09/08 01:43:55;;;;;;;0.80;0.70;;;;;;;;;;5085652;28;20430;-74
2022/09/08 01:46:27;;;;;;;0.73;0.70;;;;;;;;;;5051267;28;20443;-75
2022/09/08 01:48:55;;;;;;;0.80;0.70;;;;;;;;;;5065638;28;20443;-74
2022/09/08 01:51:24;;;;;;;0.70;0.70;;;;;;;;;;5078608;28;20460;-73
2022/09/08 01:53:53;;;;;;;0.77;0.77;;;;;;;;;;5072441;28;20443;-73
2022/09/08 01:56:21;;;;;;;0.70;0.70;;;;;;;;;;5076162;28;20462;-74
2022/09/08 01:58:51;;;;;;;0.70;0.70;;;;;;;;;;5074370;28;20443;-72
2022/09/08 02:01:23;;;;;;;0.70;0.70;;;;;;;;;;5075034;28;20451;-72
2022/09/08 02:03:54;;;;;;;0.77;0.70;;;;;;;;;;5076807;28;20509;-74
2022/09/08 02:06:23;;;;;;;0.70;0.60;;;;;;;;;;5089135;28;20447;-74
2022/09/08 02:08:50;;;;;;;0.80;0.80;;;;;;;;;;5081149;28;20500;-75
2022/09/08 02:11:17;;;;;;;0.87;0.80;;;;;;;;;;5080161;28;20446;-74
2022/09/08 02:13:45;;;;;;;0.80;0.70;;;;;;;;;;5073077;28;20446;-75
2022/09/08 02:16:12;;;;;;;0.70;0.70;;;;;;;;;;5077592;28;21016;-74
2022/09/08 02:18:43;;;;;;;0.80;0.73;;;;;;;;;;5079570;28;20952;-73
2022/09/08 02:21:11;;;;;;;0.80;0.80;;;;;;;;;;5087068;28;20495;-74
2022/09/08 02:23:39;;;;;;;0.70;0.60;;;;;;;;;;5089017;28;20446;-74
2022/09/08 02:26:06;;;;;;;0.70;0.60;;;;;;;;;;5091886;28;20423;-74
2022/09/08 02:28:33;;;;;;;0.70;0.60;;;;;;;;;;5080991;28;20550;-73
2022/09/08 02:31:01;;;;;;;1.00;1.00;;;;;;;;;;5087395;28;20488;-72
2022/09/08 02:33:29;;;;;;;0.80;0.70;;;;;;;;;;5075944;28;20446;-74
2022/09/08 02:35:57;;;;;;;0.93;0.80;;;;;;;;;;5087190;28;20911;-74
2022/09/08 02:38:24;;;;;;;0.80;0.77;;;;;;;;;;5082228;28;20544;-74
2022/09/08 02:40:51;;;;;;;0.80;0.73;;;;;;;;;;5082540;28;20460;-74
2022/09/08 02:43:20;;;;;;;0.70;0.70;;;;;;;;;;5079034;28;20492;-73
2022/09/08 02:45:46;;;;;;;1.03;0.93;;;;;;;;;;5080880;28;20447;-73
2022/09/08 02:48:13;;;;;;;0.77;0.70;;;;;;;;;;5081981;28;20472;-74
2022/09/08 02:50:41;;;;;;;0.77;0.73;;;;;;;;;;5065876;28;20862;-74
2022/09/08 02:53:09;;;;;;;0.77;0.73;;;;;;;;;;5092698;28;20438;-75
2022/09/08 02:55:37;;;;;;;0.80;0.80;;;;;;;;;;5095597;28;20549;-73
2022/09/08 02:58:04;;;;;;;0.80;0.73;;;;;;;;;;5076916;28;20489;-75
2022/09/08 03:00:32;;;;;;;0.70;0.70;;;;;;;;;;5089759;28;20432;-79
2022/09/08 03:02:59;;;;;;;0.73;0.70;;;;;;;;;;5074683;28;20830;-79
2022/09/08 03:05:27;;;;;;;0.70;0.70;;;;;;;;;;5076807;28;20437;-79
2022/09/08 03:07:58;;;;;;;0.70;0.63;;;;;;;;;;5074730;28;21024;-78
2022/09/08 03:10:26;;;;;;;0.70;0.60;;;;;;;;;;5088751;28;20484;-76
2022/09/08 03:12:53;;;;;;;0.70;0.67;;;;;;;;;;5085514;28;20535;-77
2022/09/08 03:15:21;;;;;;;0.70;0.70;;;;;;;;;;5075503;28;20564;-77
2022/09/08 03:17:47;;;;;;;0.87;0.87;;;;;;;;;;5076530;28;20442;-76
2022/09/08 03:20:15;;;;;;;0.70;0.60;;;;;;;;;;5078695;28;20487;-77
2022/09/08 03:22:42;;;;;;;0.70;0.60;;;;;;;;;;5084352;28;20929;-78
2022/09/08 03:25:10;;;;;;;0.70;0.70;;;;;;;;;;5084541;28;20453;-77
2022/09/08 03:27:39;;;;;;;0.73;0.73;;;;;;;;;;5086899;28;20465;-77
2022/09/08 03:30:07;;;;;;;0.80;0.70;;;;;;;;;;5085870;28;20433;-77
2022/09/08 03:32:35;;;;;;;0.90;0.90;;;;;;;;;;5082131;28;20447;-78
2022/09/08 03:35:02;;;;;;;0.70;0.60;;;;;;;;;;5082963;28;20933;-79
2022/09/08 03:37:28;;;;;;;0.87;0.80;;;;;;;;;;5088172;28;20448;-77
2022/09/08 03:39:55;;;;;;;0.83;0.83;;;;;;;;;;5084657;28;20951;-78
2022/09/08 03:42:23;;;;;;;0.80;0.80;;;;;;;;;;5080769;28;20491;-78
2022/09/08 03:44:51;;;;;;;0.80;0.70;;;;;;;;;;5080739;28;20424;-78
2022/09/08 03:47:18;;;;;;;0.70;0.60;;;;;;;;;;5087505;28;20463;-79
2022/09/08 03:49:46;;;;;;;1.10;1.00;;;;;;;;;;5085545;28;20438;-79
2022/09/08 03:52:13;;;;;;;0.70;0.70;;;;;;;;;;5074793;28;20470;-79
2022/09/08 03:54:50;;;;;;;0.70;0.67;;;;;;;;;;5062721;28;20504;-80
2022/09/08 03:57:18;;;;;;;0.77;0.73;;;;;;;;;;5064023;28;20533;-79
2022/09/08 03:59:46;;;;;;;0.70;0.63;;;;;;;;;;5085523;28;20448;-79
2022/09/08 04:02:14;;;;;;;1.00;0.90;;;;;;;;;;5083838;28;20447;-79
2022/09/08 04:04:41;;;;;;;0.80;0.80;;;;;;;;;;5087580;28;20437;-79
2022/09/08 04:07:09;;;;;;;0.70;0.70;;;;;;;;;;5084354;28;20971;-78
2022/09/08 04:09:36;;;;;;;0.97;0.97;;;;;;;;;;5087216;28;20439;-79
2022/09/08 04:12:04;;;;;;;0.80;0.80;;;;;;;;;;5080886;28;20450;-79
2022/09/08 04:14:30;;;;;;;0.70;0.67;;;;;;;;;;5074691;28;20438;-79
2022/09/08 04:16:57;;;;;;;1.00;1.00;;;;;;;;;;5092743;28;20469;-77
2022/09/08 04:19:26;;;;;;;0.70;0.60;;;;;;;;;;5084387;28;20454;-80
2022/09/08 04:21:52;;;;;;;0.70;0.70;;;;;;;;;;5076958;28;20566;-78
2022/09/08 04:24:20;;;;;;;0.70;0.70;;;;;;;;;;5078058;28;20488;-80
2022/09/08 04:26:46;;;;;;;1.23;1.13;;;;;;;;;;5068114;28;20458;-79
2022/09/08 04:29:15;;;;;;;0.90;0.90;;;;;;;;;;5083265;28;20496;-80
2022/09/08 04:31:42;;;;;;;0.70;0.70;;;;;;;;;;5063447;28;20453;-80
2022/09/08 04:34:10;;;;;;;0.80;0.70;;;;;;;;;;5087442;28;20459;-80
2022/09/08 04:36:38;;;;;;;0.77;0.77;;;;;;;;;;5085037;28;20477;-80
2022/09/08 04:39:08;;;;;;;0.70;0.70;;;;;;;;;;5062704;28;20442;-79
2022/09/08 04:41:36;;;;;;;0.80;0.80;;;;;;;;;;5058310;28;20457;-79
2022/09/08 04:44:09;;;;;;;0.70;0.70;;;;;;;;;;5078271;28;20474;-79
2022/09/08 04:46:36;;;;;;;1.20;1.10;;;;;;;;;;5060356;28;20453;-79
2022/09/08 04:49:03;;;;;;;1.53;0.90;;;;;;;;;;5081088;28;20955;-77
2022/09/08 04:51:30;;;;;;;0.80;0.80;;;;;;;;;;5083686;28;20518;-78
2022/09/08 04:54:01;;;;;;;0.70;0.70;;;;;;;;;;5085790;28;20919;-78
2022/09/08 04:56:28;;;;;;;0.80;0.80;;;;;;;;;;5075199;28;20464;-79
2022/09/08 04:58:54;;;;;;;0.70;0.70;;;;;;;;;;5082164;28;20448;-79
2022/09/08 05:01:23;;;;;;;0.70;0.70;;;;;;;;;;5082088;28;20444;-79
2022/09/08 05:03:51;;;;;;;0.70;0.60;;;;;;;;;;5086412;28;20444;-78
2022/09/08 05:06:19;;;;;;;0.73;0.73;;;;;;;;;;5083818;28;20455;-77
2022/09/08 05:08:46;;;;;;;0.70;0.60;;;;;;;;;;5077287;28;20462;-78
2022/09/08 05:11:16;;;;;;;0.70;0.63;;;;;;;;;;5082578;28;20429;-78
2022/09/08 05:13:42;;;;;;;0.70;0.70;;;;;;;;;;5086491;28;20434;-78
2022/09/08 05:16:10;;;;;;;1.30;1.20;;;;;;;;;;5078103;28;20817;-79
2022/09/08 05:18:37;;;;;;;0.70;0.70;;;;;;;;;;5083484;28;20831;-79
2022/09/08 05:21:04;;;;;;;0.90;0.90;;;;;;;;;;5085043;28;20461;-79
2022/09/08 05:23:31;;;;;;;0.80;0.80;;;;;;;;;;5081215;28;20534;-79
2022/09/08 05:26:00;;;;;;;0.77;0.77;;;;;;;;;;5084548;28;20483;-80
2022/09/08 05:28:29;;;;;;;0.70;0.70;;;;;;;;;;5087151;28;20457;-80
2022/09/08 05:30:57;;;;;;;0.70;0.70;;;;;;;;;;5078607;28;20447;-80
2022/09/08 05:33:24;;;;;;;0.70;0.67;;;;;;;;;;5078018;28;20522;-80
2022/09/08 05:35:51;;;;;;;0.70;0.70;;;;;;;;;;5090346;28;20468;-79
2022/09/08 05:38:18;;;;;;;0.70;0.70;;;;;;;;;;5086297;28;20434;-79
2022/09/08 05:40:44;;;;;;;0.90;0.90;;;;;;;;;;5084218;28;20508;-80
2022/09/08 05:43:11;;;;;;;0.70;0.70;;;;;;;;;;5072121;28;20577;-77
2022/09/08 05:45:42;;;;;;;0.70;0.70;;;;;;;;;;5077627;28;20436;-79
2022/09/08 05:48:09;;;;;;;0.80;0.80;;;;;;;;;;5083500;28;20438;-78
2022/09/08 05:50:36;;;;;;;0.70;0.70;;;;;;;;;;5082338;28;20477;-79
2022/09/08 05:53:03;;;;;;;0.73;0.70;;;;;;;;;;5080272;28;20953;-79
2022/09/08 05:55:30;;;;;;;0.80;0.80;;;;;;;;;;5079195;28;20435;-77
2022/09/08 05:57:57;;;;;;;0.80;0.80;;;;;;;;;;5078081;28;20491;-77
2022/09/08 06:00:46;;;;;;;0.70;0.70;;;;;;;;;;5077488;28;20445;-79
2022/09/08 06:03:13;;;;;;;0.70;0.70;;;;;;;;;;5063173;28;20448;-77
2022/09/08 06:05:39;;;;;;;0.70;0.70;;;;;;;;;;5074440;28;20559;-78
2022/09/08 06:08:06;;;;;;;0.80;0.80;;;;;;;;;;5077240;28;20435;-78
2022/09/08 06:10:35;;;;;;;1.33;1.03;;;;;;;;;;5077525;28;20447;-78
2022/09/08 06:13:02;;;;;;;0.70;0.70;;;;;;;;;;5066552;28;20476;-79
2022/09/08 06:15:28;;;;;;;0.70;0.70;;;;;;;;;;5073591;28;20986;-78
2022/09/08 06:18:01;;;;;;;0.80;0.80;;;;;;;;;;5069215;28;20845;-78
2022/09/08 06:20:28;;;;;;;0.70;0.70;;;;;;;;;;5084121;28;20440;-76
2022/09/08 06:22:55;;;;;;;0.70;0.63;;;;;;;;;;5086497;28;20539;-77
2022/09/08 06:25:22;;;;;;;0.80;0.80;;;;;;;;;;5062790;28;20446;-77
2022/09/08 06:27:56;;;;;;;1.17;1.17;;;;;;;;;;5076090;28;20465;-77
2022/09/08 06:30:23;;;;;;;1.60;1.50;;;;;;;;;;5073431;28;20450;-78
2022/09/08 06:33:12;;;;;;;0.70;0.70;;;;;;;;;;5075716;28;20433;-75
2022/09/08 06:35:41;;;;;;;1.53;1.43;;;;;;;;;;5081967;28;20946;-75
2022/09/08 06:38:11;;;;;;;0.67;0.60;;;;;;;;;;5061472;28;20845;-76
2022/09/08 06:40:40;;;;;;;0.80;0.80;;;;;;;;;;5086998;28;20448;-75
2022/09/08 06:43:11;;;;;;;1.60;1.50;;;;;;;;;;5080788;28;20445;-76
2022/09/08 06:45:40;;;;;;;0.70;0.70;;;;;;;;;;5079974;28;20471;-75
2022/09/08 06:48:19;;;;;;;1.20;1.10;;;;;;;;;;5078967;28;20442;-73
2022/09/08 06:50:51;;;;;;;1.27;1.20;;;;;;;;;;5084419;28;20477;-75
2022/09/08 06:53:21;;;;;;;0.70;0.60;;;;;;;;;;5086944;28;20487;-76
2022/09/08 06:55:52;;;;;;;0.70;0.70;;;;;;;;;;5082158;28;20938;-74
2022/09/08 06:58:44;;;;;;;1.63;0.97;;;;;;;;;;5076383;28;20530;-74
2022/09/08 07:01:16;;;;;;;1.13;1.03;;;;;;;;;;5075190;28;20523;-75
2022/09/08 07:03:59;;;;;;;0.70;0.60;;;;;;;;;;5084491;28;20489;-74
2022/09/08 07:06:27;;;;;;;0.80;0.80;;;;;;;;;;5086782;28;20459;-74
2022/09/08 07:09:01;;;;;;;0.73;0.73;;;;;;;;;;5080777;28;20452;-73
2022/09/08 07:11:37;;;;;;;0.70;0.70;;;;;;;;;;5080671;28;20548;-74
2022/09/08 07:14:11;;;;;;;0.70;0.70;;;;;;;;;;5080238;28;20807;-74
2022/09/08 07:16:40;;;;;;;0.70;0.67;;;;;;;;;;5078723;28;20555;-75
2022/09/08 07:19:14;;;;;;;0.70;0.70;;;;;;;;;;5082629;28;20803;-76
2022/09/08 07:21:59;;;;;;;0.70;0.60;;;;;;;;;;5076661;28;21012;-75
2022/09/08 07:24:33;;;;;;;0.70;0.70;;;;;;;;;;5073199;28;20460;-74
2022/09/08 07:27:01;;;;;;;0.80;0.80;;;;;;;;;;5077029;28;20943;-77
2022/09/08 07:29:30;;;;;;;0.60;0.60;;;;;;;;;;5062180;28;20891;-75
2022/09/08 07:31:57;;;;;;;0.60;0.50;;;;;;;;;;5084408;28;21421;-75
2022/09/08 07:34:26;;;;;;;1.57;1.47;;;;;;;;;;5069221;28;20518;-75
2022/09/08 07:37:00;;;;;;;0.70;0.63;;;;;;;;;;5085259;28;20473;-78
2022/09/08 07:39:31;;;;;;;0.60;0.60;;;;;;;;;;5086224;28;20449;-78
2022/09/08 07:42:02;;;;;;;0.90;0.90;;;;;;;;;;5076453;28;20789;-77
2022/09/08 07:44:32;;;;;;;0.70;0.60;;;;;;;;;;5079157;28;20463;-77
2022/09/08 07:47:14;;;;;;;0.70;0.70;;;;;;;;;;5076234;28;20504;-80
2022/09/08 07:49:46;;;;;;;0.70;0.70;;;;;;;;;;5078153;28;20435;-79
2022/09/08 07:52:18;;;;;;;1.80;1.07;;;;;;;;;;5074401;28;20516;-79
2022/09/08 07:54:52;;;;;;;0.70;0.60;;;;;;;;;;5092269;28;20548;-78
2022/09/08 07:57:23;;;;;;;0.70;0.70;;;;;;;;;;5088235;28;20495;-77
2022/09/08 08:00:09;;;;;;;0.70;0.63;;;;;;;;;;5085468;28;20463;-77
2022/09/08 08:02:50;;;;;;;0.60;0.60;;;;;;;;;;5087482;28;20441;-78
2022/09/08 08:05:20;;;;;;;0.70;0.60;;;;;;;;;;5090372;28;20449;-78
2022/09/08 08:07:53;;;;;;;0.70;0.70;;;;;;;;;;5084252;28;20965;-77
2022/09/08 08:10:23;;;;;;;0.70;0.67;;;;;;;;;;5083780;28;20435;-77
2022/09/08 08:12:55;;;;;;;0.60;0.60;;;;;;;;;;5066977;28;20786;-76
2022/09/08 08:15:26;;;;;;;0.70;0.70;;;;;;;;;;5094443;28;20444;-77
2022/09/08 08:17:58;;;;;;;0.67;0.60;;;;;;;;;;5076672;28;20482;-75
2022/09/08 08:20:34;;;;;;;1.20;1.10;;;;;;;;;;5087540;28;20452;-80
2022/09/08 08:23:11;;;;;;;0.80;0.80;;;;;;;;;;5079997;28;20440;-80
2022/09/08 08:25:44;;;;;;;0.70;0.70;;;;;;;;;;5090260;28;20437;-79
2022/09/08 08:28:13;;;;;;;0.80;0.80;;;;;;;;;;5084692;28;20444;-79
2022/09/08 08:30:42;;;;;;;0.70;0.60;;;;;;;;;;5085105;28;20815;-78
2022/09/08 08:33:11;;;;;;;0.70;0.70;;;;;;;;;;5098572;28;20443;-79
2022/09/08 08:35:46;;;;;;;0.70;0.70;;;;;;;;;;5087041;28;20466;-79
2022/09/08 08:38:19;;;;;;;0.70;0.60;;;;;;;;;;5088107;28;20461;-79
2022/09/08 08:40:56;;;;;;;0.90;0.70;;;;;;;;;;5090947;28;20425;-77
2022/09/08 08:43:41;;;;;;;0.70;0.70;;;;;;;;;;5092786;28;20446;-79
2022/09/08 08:46:17;;;;;;;0.70;0.70;;;;;;;;;;5068280;28;20481;-79
2022/09/08 08:48:52;;;;;;;0.67;0.60;;;;;;;;;;5082966;28;20775;-77
2022/09/08 08:51:47;;;;;;;0.70;0.70;;;;;;;;;;5070283;28;20948;-77
2022/09/08 08:54:32;;;;;;;0.70;0.70;;;;;;;;;;5050319;28;20546;-78
2022/09/08 08:57:09;;;;;;;0.70;0.70;;;;;;;;;;5077596;28;20946;-77
2022/09/08 09:00:03;;;;;;;0.70;0.70;;;;;;;;;;5074940;28;20495;-77
2022/09/08 09:02:49;;;;;;;0.70;0.60;;;;;;;;;;5019424;28;21036;-77
2022/09/08 09:05:34;;;;;;;0.70;0.70;;;;;;;;;;5090566;28;20858;-78
2022/09/08 09:08:15;;;;;;;0.70;0.60;;;;;;;;;;5091748;28;20537;-77
2022/09/08 09:10:54;;;;;;;0.70;0.60;;;;;;;;;;5075269;28;20440;-78
2022/09/08 09:13:44;;;;;;;0.80;0.80;;;;;;;;;;5090385;28;20459;-78
2022/09/08 09:16:35;;;;;;;0.80;0.80;;;;;;;;;;5080249;28;20533;-79
2022/09/08 09:19:09;;;;;;;0.70;0.70;;;;;;;;;;5066165;28;20561;-77
2022/09/08 09:21:45;;;;;;;0.70;0.60;;;;;;;;;;5085685;28;21026;-76
2022/09/08 09:24:14;;;;;;;0.80;0.80;;;;;;;;;;5085811;28;20448;-75
2022/09/08 09:26:46;;;;;;;0.70;0.70;;;;;;;;;;5082534;28;20461;-75
2022/09/08 09:29:14;;;;;;;0.70;0.70;;;;;;;;;;5091910;28;20419;-76
2022/09/08 09:31:58;;;;;;;0.70;0.60;;;;;;;;;;5087869;28;20439;-76
2022/09/08 09:34:32;;;;;;;0.70;0.70;;;;;;;;;;5072918;28;20449;-75
2022/09/08 09:37:09;;;;;;;1.43;1.33;;;;;;;;;;5082016;28;20573;-74
2022/09/08 09:39:51;;;;;;;0.70;0.70;;;;;;;;;;5090062;28;20458;-75
2022/09/08 09:42:28;;;;;;;1.67;1.43;;;;;;;;;;5083132;28;20500;-75
2022/09/08 09:45:10;;;;;;;0.80;0.80;;;;;;;;;;5072669;28;20440;-76
2022/09/08 09:47:47;;;;;;;2.03;1.20;;;;;;;;;;5080821;28;20466;-78
2022/09/08 09:50:32;;;;;;;0.70;0.60;;;;;;;;;;5087928;28;20817;-75
2022/09/08 09:53:05;;;;;;;0.70;0.63;;;;;;;;;;5095833;28;20439;-76
2022/09/08 09:56:05;;;;;;;0.80;0.70;;;;;;;;;;5095171;28;20446;-76
2022/09/08 09:58:49;;;;;;;0.70;0.70;;;;;;;;;;5082833;28;20463;-76
2022/09/08 10:01:26;;;;;;;0.70;0.70;;;;;;;;;;5083221;28;20971;-75
2022/09/08 10:04:12;;;;;;;0.70;0.60;;;;;;;;;;5093914;28;20989;-76
2022/09/08 10:06:49;;;;;;;1.07;1.00;;;;;;;;;;5091216;28;20459;-79
2022/09/08 10:09:49;;;;;;;0.80;0.70;;;;;;;;;;5067288;28;20443;-75
2022/09/08 10:12:29;;;;;;;0.77;0.70;;;;;;;;;;5089284;28;20437;-74
2022/09/08 10:15:23;;;;;;;0.80;0.73;;;;;;;;;;5081950;28;20470;-76
2022/09/08 10:18:01;;;;;;;0.80;0.80;;;;;;;;;;5039136;28;20474;-77
2022/09/08 10:20:52;;;;;;;0.70;0.60;;;;;;;;;;5094544;28;20446;-77
2022/09/08 10:23:38;;;;;;;0.80;0.70;;;;;;;;;;5008540;28;20464;-77
2022/09/08 10:26:15;;;;;;;0.80;0.70;;;;;;;;;;5081856;28;20467;-76
2022/09/08 10:28:54;;;;;;;0.80;0.70;;;;;;;;;;5057758;28;20447;-77
2022/09/08 10:31:30;;;;;;;1.00;0.80;;;;;;;;;;5071168;28;20492;-78
2022/09/08 10:34:08;;;;;;;0.80;0.80;;;;;;;;;;5077099;28;20471;-77
2022/09/08 10:36:48;;;;;;;0.80;0.70;;;;;;;;;;5075157;28;20441;-76
2022/09/08 10:39:23;;;;;;;0.80;0.70;;;;;;;;;;5079043;28;21044;-74
2022/09/08 10:42:20;;;;;;;0.70;0.60;;;;;;;;;;5081170;28;20426;-75
2022/09/08 10:44:50;;;;;;;0.70;0.60;;;;;;;;;;5081360;28;20438;-76
2022/09/08 10:47:34;;;;;;;0.80;0.80;;;;;;;;;;5080920;28;20443;-77
2022/09/08 10:50:16;;;;;;;0.80;0.70;;;;;;;;;;5079506;28;20445;-77
2022/09/08 10:52:58;;;;;;;0.70;0.60;;;;;;;;;;5083115;28;20446;-76
2022/09/08 10:55:39;;;;;;;0.70;0.63;;;;;;;;;;5088566;28;20461;-77
2022/09/08 11:33:15;;;;;;;1.17;1.07;;;;;;;;;;5085284;28;20425;-78
2022/09/08 11:35:46;;;;;;;0.80;0.80;;;;;;;;;;5083732;28;20425;-77
2022/09/08 11:38:17;;;;;;;0.80;0.70;;;;;;;;;;5067389;28;20448;-77
2022/09/08 11:41:17;;;;;;;0.80;0.80;;;;;;;;;;5083587;28;20549;-77
2022/09/08 11:43:51;;;;;;;0.80;0.70;;;;;;;;;;5079126;28;20413;-78
2022/09/08 11:46:29;;;;;;;0.80;0.70;;;;;;;;;;5082619;28;20445;-72
2022/09/08 11:49:11;;;;;;;0.80;0.70;;;;;;;;;;5083794;28;20436;-75
2022/09/08 11:52:08;;;;;;;0.70;0.70;;;;;;;;;;5083809;28;20441;-72
2022/09/08 11:55:01;;;;;;;0.80;0.80;;;;;;;;;;5079500;28;20942;-73
2022/09/08 11:57:31;;;;;;;0.70;0.60;;;;;;;;;;5070981;28;20451;-73
2022/09/08 12:00:08;;;;;;;0.73;0.70;;;;;;;;;;5086764;28;20450;-73
2022/09/08 12:02:48;;;;;;;0.70;0.60;;;;;;;;;;5083151;28;20446;-74
2022/09/08 12:05:20;;;;;;;0.80;0.70;;;;;;;;;;5087435;28;20411;-79
2022/09/08 12:08:37;;;;;;;0.80;0.77;;;;;;;;;;5080913;28;20435;-75
2022/09/08 12:11:10;;;;;;;0.80;0.73;;;;;;;;;;5000614;28;20437;-74
2022/09/08 12:13:41;;;;;;;0.80;0.70;;;;;;;;;;5052162;28;20417;-73
2022/09/08 12:16:16;;;;;;;0.70;0.60;;;;;;;;;;5066306;28;20440;-76
2022/09/08 12:18:59;;;;;;;0.80;0.70;;;;;;;;;;5077709;28;20458;-74
2022/09/08 12:21:39;;;;;;;0.70;0.60;;;;;;;;;;5074862;28;20466;-73
2022/09/08 12:24:12;;;;;;;0.80;0.80;;;;;;;;;;5092526;28;20827;-75
2022/09/08 12:26:45;;;;;;;0.70;0.70;;;;;;;;;;5089958;28;20515;-75
2022/09/08 12:29:19;;;;;;;0.70;0.60;;;;;;;;;;5085879;28;20519;-75
2022/09/08 12:32:08;;;;;;;0.77;0.70;;;;;;;;;;5089506;28;20468;-76
2022/09/08 12:34:52;;;;;;;0.70;0.70;;;;;;;;;;5084062;28;20483;-75
2022/09/08 12:37:24;;;;;;;0.70;0.60;;;;;;;;;;5072523;28;20970;-75
2022/09/08 12:40:09;;;;;;;0.80;0.70;;;;;;;;;;5088866;28;20506;-74
2022/09/08 12:42:52;;;;;;;0.80;0.77;;;;;;;;;;5087231;28;20453;-75
2022/09/08 12:45:28;;;;;;;0.70;0.60;;;;;;;;;;5076488;28;20413;-71
2022/09/08 12:48:02;;;;;;;3.83;0.77;;;;;;;;;;5073948;28;20492;-75
2022/09/08 12:50:33;;;;;;;0.77;0.67;;;;;;;;;;5076232;28;20431;-75
2022/09/08 12:53:12;;;;;;;0.73;0.67;;;;;;;;;;5091388;28;20566;-76
2022/09/08 12:55:40;;;;;;;0.70;0.60;;;;;;;;;;5072536;28;20474;-73
2022/09/08 12:58:07;;;;;;;0.70;0.60;;;;;;;;;;5079811;28;20487;-75
2022/09/08 13:00:36;;;;;;;0.70;0.60;;;;;;;;;;5064326;28;20452;-76
2022/09/08 13:03:09;;;;;;;0.70;0.60;;;;;;;;;;5063415;28;20447;-74
2022/09/08 13:05:49;;;;;;;0.70;0.57;;;;;;;;;;5081570;28;20458;-75
2022/09/08 13:08:23;;;;;;;0.70;0.60;;;;;;;;;;5081485;28;20478;-74
2022/09/08 13:10:52;;;;;;;0.70;0.60;;;;;;;;;;5086269;28;20937;-75
2022/09/08 13:13:33;;;;;;;0.80;0.63;;;;;;;;;;5087082;28;20536;-76
2022/09/08 13:16:08;;;;;;;0.80;0.70;;;;;;;;;;5079776;28;20438;-75
2022/09/08 13:18:38;;;;;;;0.80;0.63;;;;;;;;;;5076174;28;20991;-75
2022/09/08 13:21:10;;;;;;;0.70;0.60;;;;;;;;;;5061326;28;20478;-75
2022/09/08 13:23:52;;;;;;;0.70;0.60;;;;;;;;;;5084021;28;20447;-77
2022/09/08 13:26:26;;;;;;;0.80;0.80;;;;;;;;;;5064742;28;20482;-76
2022/09/08 13:29:07;;;;;;;0.80;0.60;;;;;;;;;;5082162;28;20427;-77
2022/09/08 13:32:02;;;;;;;0.70;0.60;;;;;;;;;;5075086;28;20561;-76
2022/09/08 13:34:45;;;;;;;0.70;0.60;;;;;;;;;;5085770;28;20505;-77
2022/09/08 13:37:19;;;;;;;1.10;1.00;;;;;;;;;;5072622;28;20483;-78
2022/09/08 13:39:57;;;;;;;0.70;0.60;;;;;;;;;;5082192;28;20469;-76
2022/09/08 13:42:36;;;;;;;0.70;0.60;;;;;;;;;;5082863;28;20454;-77
2022/09/08 13:45:17;;;;;;;0.83;0.67;;;;;;;;;;5086859;28;20455;-76
2022/09/08 13:47:53;;;;;;;0.70;0.50;;;;;;;;;;5077858;28;20442;-77
2022/09/08 13:50:34;;;;;;;0.80;0.67;;;;;;;;;;5084968;28;20429;-80
2022/09/08 13:53:18;;;;;;;0.80;0.70;;;;;;;;;;5084637;28;20449;-78
2022/09/08 13:56:01;;;;;;;0.70;0.70;;;;;;;;;;5081595;28;20970;-76
2022/09/08 13:58:32;;;;;;;0.70;0.70;;;;;;;;;;5081199;28;20467;-75
2022/09/08 14:01:01;;;;;;;0.70;0.70;;;;;;;;;;5061038;28;20548;-76
2022/09/08 14:03:29;;;;;;;0.80;0.80;;;;;;;;;;5086636;28;20495;-76
2022/09/08 14:05:57;;;;;;;0.80;0.70;;;;;;;;;;5091415;28;20531;-74
2022/09/08 14:08:25;;;;;;;0.80;0.70;;;;;;;;;;5085142;28;20859;-76
2022/09/08 14:11:07;;;;;;;0.70;0.60;;;;;;;;;;5081635;28;20446;-78
2022/09/08 14:13:34;;;;;;;0.70;0.70;;;;;;;;;;5078098;28;20445;-74
2022/09/08 14:16:04;;;;;;;0.80;0.70;;;;;;;;;;5082255;28;20438;-76
2022/09/08 14:18:37;;;;;;;0.70;0.63;;;;;;;;;;5078760;28;20904;-76
2022/09/08 14:21:09;;;;;;;1.20;0.90;;;;;;;;;;5063337;28;20489;-76
2022/09/08 14:23:46;;;;;;;0.70;0.60;;;;;;;;;;5081642;28;20481;-74
2022/09/08 14:26:30;;;;;;;0.87;0.77;;;;;;;;;;5086020;28;20862;-76
2022/09/08 14:29:02;;;;;;;0.80;0.70;;;;;;;;;;5076498;28;20493;-76
2022/09/08 14:31:32;;;;;;;0.70;0.60;;;;;;;;;;5062714;28;20984;-75
2022/09/08 14:34:13;;;;;;;0.70;0.50;;;;;;;;;;5085028;28;20479;-76
2022/09/08 14:36:50;;;;;;;0.70;0.60;;;;;;;;;;5080528;28;20455;-77
2022/09/08 14:39:22;;;;;;;0.70;0.60;;;;;;;;;;5062164;28;20517;-77
2022/09/08 14:41:52;;;;;;;0.77;0.67;;;;;;;;;;5089797;28;20798;-75
2022/09/08 14:44:42;;;;;;;0.70;0.60;;;;;;;;;;5093634;28;20855;-76
2022/09/08 14:47:20;;;;;;;1.50;1.37;;;;;;;;;;5078811;28;20537;-78
2022/09/08 14:50:11;;;;;;;0.70;0.60;;;;;;;;;;5080122;28;20441;-77
2022/09/08 14:53:09;;;;;;;0.80;0.70;;;;;;;;;;5061119;28;20955;-76
2022/09/08 14:55:38;;;;;;;0.70;0.60;;;;;;;;;;5024253;28;20536;-75
2022/09/08 14:58:18;;;;;;;0.70;0.60;;;;;;;;;;5069537;28;21063;-75
2022/09/08 15:00:50;;;;;;;0.70;0.60;;;;;;;;;;5079432;28;20468;-73
2022/09/08 15:03:18;;;;;;;0.80;0.70;;;;;;;;;;5092344;28;20431;-78
2022/09/08 15:05:47;;;;;;;0.70;0.70;;;;;;;;;;5074909;28;20520;-75
2022/09/08 15:08:19;;;;;;;0.70;0.60;;;;;;;;;;5084655;28;20570;-75
2022/09/08 15:10:50;;;;;;;0.73;0.60;;;;;;;;;;5074186;28;20446;-74
2022/09/08 15:13:22;;;;;;;0.80;0.70;;;;;;;;;;5086522;28;20430;-76
2022/09/08 15:15:50;;;;;;;0.80;0.70;;;;;;;;;;5088859;28;20457;-75
2022/09/08 15:18:32;;;;;;;0.80;0.70;;;;;;;;;;5089487;28;20501;-77
2022/09/08 15:21:15;;;;;;;0.80;0.60;;;;;;;;;;5088195;28;20894;-75
2022/09/08 15:23:43;;;;;;;0.77;0.60;;;;;;;;;;5091290;28;20429;-78
2022/09/08 15:26:14;;;;;;;0.80;0.70;;;;;;;;;;5086100;28;20440;-76
2022/09/08 15:28:50;;;;;;;0.80;0.77;;;;;;;;;;5087609;28;21003;-75
2022/09/08 15:31:24;;;;;;;0.97;0.87;;;;;;;;;;5063528;28;20425;-77
2022/09/08 15:33:58;;;;;;;0.70;0.70;;;;;;;;;;5081644;28;20489;-79
2022/09/08 15:36:34;;;;;;;5.07;1.80;;;;;;;;;;5091045;28;20428;-79
2022/09/08 15:39:03;;;;;;;0.80;0.70;;;;;;;;;;5089977;28;20440;-74
2022/09/08 15:41:31;;;;;;;0.70;0.60;;;;;;;;;;5070305;28;20451;-78
2022/09/08 15:44:09;;;;;;;0.80;0.70;;;;;;;;;;5086879;28;20923;-78
2022/09/08 15:46:42;;;;;;;0.80;0.70;;;;;;;;;;5090026;28;20436;-75
2022/09/08 15:49:15;;;;;;;0.80;0.70;;;;;;;;;;5075697;28;20438;-76
2022/09/08 15:51:45;;;;;;;0.80;0.70;;;;;;;;;;5084903;28;20814;-75
2022/09/08 15:54:18;;;;;;;0.80;0.80;;;;;;;;;;5082169;28;20442;-76
2022/09/08 15:57:02;;;;;;;0.80;0.70;;;;;;;;;;5059107;28;20510;-77
2022/09/08 15:59:54;;;;;;;0.70;0.60;;;;;;;;;;5077749;28;20573;-77